createdAt,value
2018-07-16T00:00:39.139Z,0.00
2018-07-16T00:01:39.053Z,0.00
2018-07-16T00:02:38.982Z,0.00
2018-07-16T00:03:38.907Z,0.00
2018-07-16T00:04:38.834Z,0.00
2018-07-16T00:05:38.748Z,0.00
2018-07-16T00:06:38.667Z,0.00
2018-07-16T00:07:38.592Z,0.00
2018-07-16T00:08:38.510Z,0.00
2018-07-16T00:09:38.435Z,0.00
2018-07-16T00:10:38.357Z,0.00
2018-07-16T00:11:38.281Z,0.00
2018-07-16T00:12:38.190Z,0.00
2018-07-16T00:13:38.116Z,0.00
2018-07-16T00:14:38.147Z,0.00
2018-07-16T00:15:37.961Z,0.00
2018-07-16T00:16:37.881Z,0.00
2018-07-16T00:17:37.806Z,0.00
2018-07-16T00:18:37.723Z,0.00
2018-07-16T00:19:37.647Z,0.00
2018-07-16T00:20:37.574Z,0.00
2018-07-16T00:21:37.484Z,0.00
2018-07-16T00:22:37.406Z,0.00
2018-07-16T00:23:37.330Z,0.00
2018-07-16T00:24:37.248Z,0.00
2018-07-16T00:25:37.172Z,0.00
2018-07-16T00:26:37.092Z,0.00
2018-07-16T00:27:37.017Z,0.00
2018-07-16T00:28:36.933Z,0.00
2018-07-16T00:29:36.857Z,0.00
2018-07-16T00:30:36.788Z,0.00
2018-07-16T00:31:36.712Z,0.00
2018-07-16T00:32:36.618Z,0.00
2018-07-16T00:33:36.543Z,0.00
2018-07-16T00:34:36.460Z,0.00
2018-07-16T00:35:36.385Z,0.00
2018-07-16T00:36:36.313Z,0.00
2018-07-16T00:37:36.226Z,0.00
2018-07-16T00:38:36.145Z,0.00
2018-07-16T00:39:36.071Z,0.00
2018-07-16T00:40:35.996Z,0.00
2018-07-16T00:41:35.909Z,0.00
2018-07-16T00:42:35.838Z,0.00
2018-07-16T00:43:35.765Z,0.00
2018-07-16T00:44:35.675Z,0.00
2018-07-16T00:45:35.598Z,0.00
2018-07-16T00:46:35.520Z,0.00
2018-07-16T00:47:35.433Z,0.00
2018-07-16T00:48:35.363Z,0.00
2018-07-16T00:49:35.292Z,0.00
2018-07-16T00:50:35.198Z,0.00
2018-07-16T00:51:35.122Z,0.00
2018-07-16T00:52:35.058Z,0.00
2018-07-16T00:53:34.959Z,0.00
2018-07-16T00:54:34.892Z,0.00
2018-07-16T00:55:34.812Z,0.00
2018-07-16T00:56:34.773Z,0.00
2018-07-16T00:57:34.663Z,0.00
2018-07-16T00:58:34.574Z,0.00
2018-07-16T00:59:34.492Z,0.00
2018-07-16T01:00:34.414Z,0.00
2018-07-16T01:01:34.341Z,0.00
2018-07-16T01:02:34.262Z,0.00
2018-07-16T01:03:34.173Z,0.00
2018-07-16T01:04:34.101Z,0.00
2018-07-16T01:05:34.014Z,0.00
2018-07-16T01:06:33.936Z,0.00
2018-07-16T01:07:33.859Z,0.00
2018-07-16T01:08:33.775Z,0.00
2018-07-16T01:09:33.699Z,0.00
2018-07-16T01:10:33.628Z,0.00
2018-07-16T01:11:33.542Z,0.00
2018-07-16T01:12:33.462Z,0.00
2018-07-16T01:13:33.387Z,0.00
2018-07-16T01:14:33.304Z,0.00
2018-07-16T01:15:33.228Z,0.00
2018-07-16T01:16:33.151Z,0.00
2018-07-16T01:17:33.064Z,0.00
2018-07-16T01:18:32.986Z,0.00
2018-07-16T01:19:32.913Z,0.00
2018-07-16T01:20:32.830Z,0.00
2018-07-16T01:21:32.760Z,0.00
2018-07-16T01:22:32.687Z,0.00
2018-07-16T01:23:32.588Z,0.00
2018-07-16T01:24:32.510Z,0.00
2018-07-16T01:25:32.435Z,0.00
2018-07-16T01:26:32.354Z,0.00
2018-07-16T01:27:32.277Z,0.00
2018-07-16T01:28:32.197Z,0.00
2018-07-16T01:29:32.111Z,0.00
2018-07-16T01:30:32.040Z,0.00
2018-07-16T01:31:31.966Z,0.00
2018-07-16T01:32:31.880Z,0.00
2018-07-16T01:33:31.804Z,0.00
2018-07-16T01:34:31.739Z,0.00
2018-07-16T01:35:31.640Z,0.00
2018-07-16T01:36:31.570Z,0.00
2018-07-16T01:37:31.485Z,0.00
2018-07-16T01:38:31.399Z,0.00
2018-07-16T01:39:31.325Z,0.00
2018-07-16T01:40:31.239Z,0.00
2018-07-16T01:41:31.166Z,0.00
2018-07-16T01:42:31.093Z,0.00
2018-07-16T01:43:31.008Z,0.00
2018-07-16T01:44:30.935Z,0.00
2018-07-16T01:45:30.849Z,0.00
2018-07-16T01:46:30.768Z,0.00
2018-07-16T01:47:30.692Z,0.00
2018-07-16T01:48:30.619Z,0.00
2018-07-16T01:49:30.532Z,0.00
2018-07-16T01:50:30.465Z,0.00
2018-07-16T01:51:30.366Z,0.00
2018-07-16T01:52:30.293Z,0.00
2018-07-16T01:53:30.218Z,0.00
2018-07-16T01:54:30.127Z,0.00
2018-07-16T01:55:32.676Z,0.00
2018-07-16T01:56:29.978Z,0.00
2018-07-16T01:57:29.891Z,0.00
2018-07-16T01:59:15.367Z,0.00
2018-07-16T02:00:14.483Z,0.00
2018-07-16T02:01:11.782Z,0.00
2018-07-16T02:02:11.696Z,0.00
2018-07-16T02:03:11.619Z,0.00
2018-07-16T02:04:11.543Z,0.00
2018-07-16T02:05:11.465Z,0.00
2018-07-16T02:06:11.385Z,0.00
2018-07-16T02:07:11.297Z,0.00
2018-07-16T02:08:11.220Z,0.00
2018-07-16T02:09:11.143Z,0.00
2018-07-16T02:10:11.066Z,0.00
2018-07-16T02:11:10.977Z,0.00
2018-07-16T02:12:10.912Z,0.00
2018-07-16T02:13:10.820Z,0.00
2018-07-16T02:14:10.741Z,0.00
2018-07-16T02:15:10.666Z,0.00
2018-07-16T02:16:10.583Z,0.00
2018-07-16T02:17:10.507Z,0.00
2018-07-16T02:18:10.435Z,0.00
2018-07-16T02:19:10.348Z,0.00
2018-07-16T02:20:10.272Z,0.00
2018-07-16T02:21:10.193Z,0.00
2018-07-16T02:22:10.107Z,0.00
2018-07-16T02:23:10.035Z,0.00
2018-07-16T02:24:09.943Z,0.00
2018-07-16T02:25:09.869Z,0.00
2018-07-16T02:26:09.782Z,0.00
2018-07-16T02:27:09.706Z,4.00
2018-07-16T02:28:09.636Z,4.00
2018-07-16T02:29:09.548Z,4.00
2018-07-16T02:30:09.474Z,0.00
2018-07-16T02:31:09.383Z,4.00
2018-07-16T02:32:09.311Z,4.00
2018-07-16T02:33:09.236Z,4.00
2018-07-16T02:34:09.147Z,4.00
2018-07-16T02:35:09.073Z,8.00
2018-07-16T02:36:08.983Z,8.00
2018-07-16T02:37:08.905Z,8.00
2018-07-16T02:38:08.837Z,8.00
2018-07-16T02:39:08.750Z,12.00
2018-07-16T02:40:08.672Z,12.00
2018-07-16T02:41:08.585Z,12.00
2018-07-16T02:42:08.506Z,12.00
2018-07-16T02:43:08.431Z,16.00
2018-07-16T02:44:08.348Z,16.00
2018-07-16T02:45:08.274Z,20.00
2018-07-16T02:46:08.197Z,24.00
2018-07-16T02:47:08.107Z,28.00
2018-07-16T02:48:08.036Z,28.00
2018-07-16T02:49:07.950Z,32.00
2018-07-16T02:50:07.876Z,32.00
2018-07-16T02:51:07.801Z,36.00
2018-07-16T02:52:07.709Z,44.00
2018-07-16T02:53:07.634Z,44.00
2018-07-16T02:54:07.550Z,48.00
2018-07-16T02:55:07.475Z,56.00
2018-07-16T02:56:07.396Z,60.00
2018-07-16T02:57:07.308Z,68.00
2018-07-16T02:58:07.239Z,68.00
2018-07-16T02:59:07.161Z,76.00
2018-07-16T03:00:07.079Z,80.00
2018-07-16T03:01:07.011Z,92.00
2018-07-16T03:02:06.922Z,96.00
2018-07-16T03:03:06.834Z,104.00
2018-07-16T03:04:06.761Z,112.00
2018-07-16T03:05:06.676Z,120.00
2018-07-16T03:06:06.604Z,128.00
2018-07-16T03:07:06.529Z,136.00
2018-07-16T03:08:06.436Z,148.00
2018-07-16T03:09:06.362Z,156.00
2018-07-16T03:10:06.276Z,164.00
2018-07-16T03:11:06.203Z,172.00
2018-07-16T03:12:06.110Z,184.00
2018-07-16T03:13:06.035Z,192.00
2018-07-16T03:14:05.962Z,204.00
2018-07-16T03:15:05.877Z,216.00
2018-07-16T03:16:05.809Z,228.00
2018-07-16T03:17:05.717Z,236.00
2018-07-16T03:18:05.748Z,252.00
2018-07-16T03:19:05.563Z,260.00
2018-07-16T03:20:05.480Z,276.00
2018-07-16T03:21:05.405Z,284.00
2018-07-16T03:22:05.315Z,300.00
2018-07-16T03:23:05.240Z,312.00
2018-07-16T03:24:05.164Z,328.00
2018-07-16T03:25:05.075Z,332.00
2018-07-16T03:26:05.006Z,348.00
2018-07-16T03:27:04.918Z,360.00
2018-07-16T03:28:04.839Z,372.00
2018-07-16T03:29:04.763Z,392.00
2018-07-16T03:30:04.676Z,408.00
2018-07-16T03:31:04.600Z,424.00
2018-07-16T03:32:04.515Z,444.00
2018-07-16T03:33:04.441Z,460.00
2018-07-16T03:34:04.366Z,480.00
2018-07-16T03:35:04.284Z,504.00
2018-07-16T03:36:04.205Z,524.00
2018-07-16T03:37:04.116Z,544.00
2018-07-16T03:38:04.044Z,564.00
2018-07-16T03:39:03.972Z,580.00
2018-07-16T03:40:03.877Z,596.00
2018-07-16T03:41:03.803Z,616.00
2018-07-16T03:42:03.720Z,632.00
2018-07-16T03:43:03.642Z,648.00
2018-07-16T03:44:03.551Z,664.00
2018-07-16T03:45:03.476Z,676.00
2018-07-16T03:46:03.415Z,692.00
2018-07-16T03:47:03.319Z,704.00
2018-07-16T03:48:03.296Z,720.00
2018-07-16T03:49:03.159Z,732.00
2018-07-16T03:50:03.078Z,748.00
2018-07-16T03:51:03.004Z,764.00
2018-07-16T03:52:02.925Z,780.00
2018-07-16T03:53:02.859Z,796.00
2018-07-16T03:54:02.757Z,812.00
2018-07-16T03:55:02.682Z,824.00
2018-07-16T03:56:02.602Z,840.00
2018-07-16T03:57:02.514Z,856.00
2018-07-16T03:58:02.447Z,872.00
2018-07-16T03:59:02.360Z,888.00
2018-07-16T04:00:02.283Z,904.00
2018-07-16T04:01:02.205Z,920.00
2018-07-16T04:02:02.115Z,936.00
2018-07-16T04:03:02.040Z,948.00
2018-07-16T04:04:01.957Z,960.00
2018-07-16T04:05:01.882Z,976.00
2018-07-16T04:06:01.809Z,988.00
2018-07-16T04:07:01.720Z,1000.00
2018-07-16T04:08:01.640Z,1016.00
2018-07-16T04:09:01.554Z,1028.00
2018-07-16T04:10:01.481Z,1044.00
2018-07-16T04:11:01.405Z,1056.00
2018-07-16T04:12:01.338Z,1068.00
2018-07-16T04:13:01.247Z,1072.00
2018-07-16T04:14:01.166Z,1088.00
2018-07-16T04:15:01.079Z,1096.00
2018-07-16T04:16:01.009Z,1116.00
2018-07-16T04:17:00.921Z,1136.00
2018-07-16T04:18:00.848Z,1148.00
2018-07-16T04:19:00.773Z,1160.00
2018-07-16T04:20:00.683Z,1164.00
2018-07-16T04:21:00.607Z,1184.00
2018-07-16T04:22:00.530Z,1200.00
2018-07-16T04:23:00.449Z,1232.00
2018-07-16T04:24:00.383Z,1248.00
2018-07-16T04:25:00.285Z,1256.00
2018-07-16T04:26:00.210Z,1276.00
2018-07-16T04:27:00.119Z,1284.00
2018-07-16T04:28:00.048Z,1296.00
2018-07-16T04:28:59.973Z,1312.00
2018-07-16T04:29:59.887Z,1328.00
2018-07-16T04:30:59.842Z,1344.00
2018-07-16T04:31:59.737Z,1364.00
2018-07-16T04:32:59.650Z,1372.00
2018-07-16T04:33:59.572Z,1380.00
2018-07-16T04:34:59.497Z,1408.00
2018-07-16T04:35:59.406Z,1432.00
2018-07-16T04:36:59.331Z,1452.00
2018-07-16T04:37:59.247Z,1524.00
2018-07-16T04:38:59.172Z,1548.00
2018-07-16T04:39:59.192Z,1536.00
2018-07-16T04:40:59.007Z,1588.00
2018-07-16T04:41:58.934Z,1612.00
2018-07-16T04:42:58.859Z,1712.00
2018-07-16T04:43:58.775Z,1900.00
2018-07-16T04:44:58.700Z,2200.00
2018-07-16T04:45:58.619Z,2408.00
2018-07-16T04:46:58.532Z,2440.00
2018-07-16T04:47:58.462Z,2492.00
2018-07-16T04:48:58.374Z,2548.00
2018-07-16T04:49:58.300Z,2588.00
2018-07-16T04:50:58.226Z,2636.00
2018-07-16T04:51:58.135Z,2676.00
2018-07-16T04:52:58.060Z,2704.00
2018-07-16T04:53:57.989Z,2668.00
2018-07-16T04:54:57.914Z,2604.00
2018-07-16T04:55:57.822Z,2504.00
2018-07-16T04:56:57.747Z,2228.00
2018-07-16T04:57:57.683Z,2008.00
2018-07-16T04:58:57.583Z,2048.00
2018-07-16T04:59:57.512Z,2000.00
2018-07-16T05:00:57.439Z,1892.00
2018-07-16T05:01:57.361Z,1860.00
2018-07-16T05:02:57.273Z,1864.00
2018-07-16T05:03:57.203Z,1888.00
2018-07-16T05:04:57.131Z,1912.00
2018-07-16T05:05:57.052Z,1940.00
2018-07-16T05:06:56.964Z,1960.00
2018-07-16T05:07:56.884Z,1972.00
2018-07-16T05:08:56.809Z,1980.00
2018-07-16T05:09:56.742Z,1996.00
2018-07-16T05:10:56.666Z,2012.00
2018-07-16T05:11:56.576Z,2020.00
2018-07-16T05:12:56.499Z,2016.00
2018-07-16T05:13:56.422Z,2040.00
2018-07-16T05:14:56.365Z,2048.00
2018-07-16T05:15:56.276Z,2056.00
2018-07-16T05:16:56.195Z,2072.00
2018-07-16T05:17:56.113Z,2084.00
2018-07-16T05:18:56.039Z,2096.00
2018-07-16T05:19:55.967Z,2100.00
2018-07-16T05:20:55.895Z,2112.00
2018-07-16T05:21:55.803Z,2128.00
2018-07-16T05:22:55.730Z,2148.00
2018-07-16T05:23:55.664Z,2168.00
2018-07-16T05:24:55.574Z,2188.00
2018-07-16T05:25:55.503Z,2196.00
2018-07-16T05:26:55.416Z,2208.00
2018-07-16T05:27:55.337Z,2212.00
2018-07-16T05:28:55.261Z,2216.00
2018-07-16T05:29:55.189Z,2224.00
2018-07-16T05:30:55.115Z,2232.00
2018-07-16T05:31:55.188Z,2224.00
2018-07-16T05:32:54.955Z,2220.00
2018-07-16T05:33:54.874Z,2224.00
2018-07-16T05:34:54.800Z,2236.00
2018-07-16T05:35:54.728Z,2244.00
2018-07-16T05:36:54.642Z,2256.00
2018-07-16T05:37:54.569Z,2264.00
2018-07-16T05:38:54.504Z,2276.00
2018-07-16T05:39:54.415Z,2292.00
2018-07-16T05:40:54.340Z,2304.00
2018-07-16T05:41:54.257Z,2316.00
2018-07-16T05:42:54.194Z,2332.00
2018-07-16T05:43:54.103Z,2348.00
2018-07-16T05:44:54.028Z,2364.00
2018-07-16T05:45:53.950Z,2372.00
2018-07-16T05:46:53.864Z,2384.00
2018-07-16T05:47:53.798Z,2396.00
2018-07-16T05:48:53.718Z,2544.00
2018-07-16T05:49:53.641Z,2860.00
2018-07-16T05:50:53.566Z,2776.00
2018-07-16T05:51:53.495Z,2772.00
2018-07-16T05:52:53.408Z,2804.00
2018-07-16T05:53:53.333Z,2600.00
2018-07-16T05:54:53.255Z,2544.00
2018-07-16T05:55:53.179Z,2556.00
2018-07-16T05:56:53.090Z,2576.00
2018-07-16T05:57:53.022Z,2596.00
2018-07-16T05:58:52.944Z,2620.00
2018-07-16T05:59:52.865Z,2640.00
2018-07-16T06:00:52.793Z,2660.00
2018-07-16T06:01:52.705Z,2680.00
2018-07-16T06:02:52.629Z,2676.00
2018-07-16T06:03:52.560Z,2668.00
2018-07-16T06:04:52.483Z,2660.00
2018-07-16T06:05:52.412Z,2656.00
2018-07-16T06:06:52.327Z,2644.00
2018-07-16T06:07:52.245Z,2648.00
2018-07-16T06:08:52.202Z,2648.00
2018-07-16T06:09:52.098Z,2656.00
2018-07-16T06:10:52.023Z,2660.00
2018-07-16T06:11:51.932Z,2668.00
2018-07-16T06:12:51.855Z,2672.00
2018-07-16T06:13:51.781Z,2688.00
2018-07-16T06:14:51.706Z,2692.00
2018-07-16T06:15:51.635Z,2692.00
2018-07-16T06:16:51.575Z,2692.00
2018-07-16T06:17:51.472Z,2684.00
2018-07-16T06:18:51.397Z,2688.00
2018-07-16T06:19:51.317Z,2684.00
2018-07-16T06:20:51.243Z,2684.00
2018-07-16T06:21:51.176Z,2692.00
2018-07-16T06:22:51.099Z,2700.00
2018-07-16T06:23:51.041Z,2708.00
2018-07-16T06:24:50.932Z,2724.00
2018-07-16T06:25:50.856Z,2724.00
2018-07-16T06:26:50.780Z,2732.00
2018-07-16T06:27:50.709Z,2744.00
2018-07-16T06:28:50.634Z,2756.00
2018-07-16T06:29:50.544Z,2768.00
2018-07-16T06:30:50.470Z,2784.00
2018-07-16T06:31:50.398Z,2800.00
2018-07-16T06:32:50.324Z,2828.00
2018-07-16T06:33:50.256Z,2836.00
2018-07-16T06:34:50.177Z,2868.00
2018-07-16T06:35:50.086Z,2884.00
2018-07-16T06:36:50.022Z,2908.00
2018-07-16T06:37:49.938Z,2948.00
2018-07-16T06:38:49.862Z,2984.00
2018-07-16T06:39:49.843Z,3020.00
2018-07-16T06:40:49.928Z,3048.00
2018-07-16T06:41:49.623Z,3076.00
2018-07-16T06:42:49.550Z,3104.00
2018-07-16T06:43:49.476Z,3132.00
2018-07-16T06:44:49.403Z,3168.00
2018-07-16T06:45:49.322Z,3216.00
2018-07-16T06:46:49.248Z,3256.00
2018-07-16T06:47:49.183Z,3304.00
2018-07-16T06:48:49.089Z,3348.00
2018-07-16T06:49:49.012Z,3392.00
2018-07-16T06:50:48.936Z,3444.00
2018-07-16T06:51:48.858Z,3488.00
2018-07-16T06:52:48.783Z,3532.00
2018-07-16T06:53:48.715Z,3620.00
2018-07-16T06:54:48.628Z,3660.00
2018-07-16T06:55:48.549Z,3720.00
2018-07-16T06:56:48.476Z,3784.00
2018-07-16T06:57:48.398Z,3876.00
2018-07-16T06:58:48.322Z,4000.00
2018-07-16T06:59:48.257Z,4060.00
2018-07-16T07:00:48.176Z,4068.00
2018-07-16T07:01:48.085Z,4104.00
2018-07-16T07:02:48.009Z,4152.00
2018-07-16T07:03:47.938Z,4168.00
2018-07-16T07:04:47.864Z,4196.00
2018-07-16T07:05:47.804Z,4240.00
2018-07-16T07:06:47.722Z,4284.00
2018-07-16T07:07:47.638Z,4340.00
2018-07-16T07:08:47.562Z,4388.00
2018-07-16T07:09:47.502Z,4484.00
2018-07-16T07:10:47.405Z,4692.00
2018-07-16T07:11:47.323Z,6056.00
2018-07-16T07:12:47.253Z,9968.00
2018-07-16T07:13:47.176Z,6276.00
2018-07-16T07:14:47.101Z,5040.00
2018-07-16T07:15:47.029Z,4836.00
2018-07-16T07:16:46.956Z,5776.00
2018-07-16T07:17:46.874Z,11884.00
2018-07-16T07:18:46.799Z,28128.00
2018-07-16T07:19:46.728Z,50144.00
2018-07-16T07:20:46.642Z,38784.00
2018-07-16T07:21:46.583Z,27616.00
2018-07-16T07:22:46.493Z,39392.00
2018-07-16T07:23:46.426Z,18432.00
2018-07-16T07:24:46.339Z,56352.00
2018-07-16T07:25:46.269Z,59264.00
2018-07-16T07:26:46.191Z,37184.00
2018-07-16T07:27:46.140Z,18880.00
2018-07-16T07:28:46.037Z,14256.00
2018-07-16T07:29:45.964Z,32512.00
2018-07-16T07:30:45.889Z,53760.00
2018-07-16T07:31:45.819Z,61856.00
2018-07-16T07:32:45.743Z,44416.00
2018-07-16T07:33:45.665Z,23840.00
2018-07-16T07:34:45.589Z,20096.00
2018-07-16T07:35:45.621Z,25472.00
2018-07-16T07:36:45.444Z,26240.00
2018-07-16T07:37:45.380Z,27872.00
2018-07-16T07:38:45.297Z,24320.00
2018-07-16T07:39:45.215Z,22464.00
2018-07-16T07:40:45.152Z,21600.00
2018-07-16T07:41:45.083Z,22240.00
2018-07-16T07:42:45.013Z,21984.00
2018-07-16T07:43:44.928Z,19712.00
2018-07-16T07:44:44.854Z,18208.00
2018-07-16T07:45:44.778Z,17824.00
2018-07-16T07:46:44.715Z,17600.00
2018-07-16T07:47:44.660Z,17312.00
2018-07-16T07:48:44.568Z,17248.00
2018-07-16T07:49:44.502Z,17568.00
2018-07-16T07:50:44.429Z,17376.00
2018-07-16T07:51:44.357Z,16480.00
2018-07-16T07:52:44.294Z,16224.00
2018-07-16T07:53:44.221Z,16248.00
2018-07-16T07:54:44.184Z,16100.00
2018-07-16T07:55:44.075Z,15212.00
2018-07-16T07:56:44.006Z,14176.00
2018-07-16T07:57:43.932Z,13916.00
2018-07-16T07:58:43.869Z,13936.00
2018-07-16T07:59:43.791Z,13764.00
2018-07-16T08:00:43.730Z,14636.00
2018-07-16T08:01:43.667Z,14812.00
2018-07-16T08:02:43.606Z,14200.00
2018-07-16T08:03:43.522Z,14144.00
2018-07-16T08:04:43.460Z,13020.00
2018-07-16T08:05:43.381Z,11988.00
2018-07-16T08:06:43.318Z,12040.00
2018-07-16T08:07:43.248Z,11680.00
2018-07-16T08:08:43.187Z,10996.00
2018-07-16T08:09:43.121Z,10504.00
2018-07-16T08:10:43.045Z,9880.00
2018-07-16T08:11:42.982Z,9372.00
2018-07-16T08:12:42.916Z,8756.00
2018-07-16T08:13:42.883Z,7896.00
2018-07-16T08:14:42.795Z,7456.00
2018-07-16T08:15:42.707Z,7392.00
2018-07-16T08:16:42.664Z,7356.00
2018-07-16T08:17:42.587Z,7352.00
2018-07-16T08:18:42.506Z,7380.00
2018-07-16T08:19:42.447Z,7384.00
2018-07-16T08:20:42.385Z,7428.00
2018-07-16T08:21:42.310Z,7508.00
2018-07-16T08:22:42.247Z,7512.00
2018-07-16T08:23:42.169Z,7516.00
2018-07-16T08:24:42.108Z,7544.00
2018-07-16T08:25:42.046Z,7548.00
2018-07-16T08:26:41.987Z,7608.00
2018-07-16T08:27:41.923Z,7660.00
2018-07-16T08:28:41.850Z,7748.00
2018-07-16T08:29:41.782Z,7856.00
2018-07-16T08:30:41.707Z,7988.00
2018-07-16T08:31:41.650Z,8148.00
2018-07-16T08:32:41.587Z,8424.00
2018-07-16T08:33:41.583Z,8676.00
2018-07-16T08:34:41.450Z,8816.00
2018-07-16T08:35:41.384Z,8964.00
2018-07-16T08:36:41.321Z,9272.00
2018-07-16T08:37:41.250Z,9336.00
2018-07-16T08:38:41.189Z,9044.00
2018-07-16T08:39:41.121Z,8932.00
2018-07-16T08:40:41.061Z,8932.00
2018-07-16T08:41:40.982Z,8856.00
2018-07-16T08:42:40.924Z,8840.00
2018-07-16T08:43:40.862Z,9088.00
2018-07-16T08:44:40.799Z,9176.00
2018-07-16T08:45:40.735Z,9232.00
2018-07-16T08:46:40.668Z,9260.00
2018-07-16T08:47:40.604Z,9436.00
2018-07-16T08:48:40.542Z,9856.00
2018-07-16T08:49:40.475Z,9936.00
2018-07-16T08:50:40.402Z,9928.00
2018-07-16T08:51:40.338Z,10016.00
2018-07-16T08:52:40.312Z,10148.00
2018-07-16T08:53:40.213Z,10192.00
2018-07-16T08:54:40.150Z,10196.00
2018-07-16T08:55:40.071Z,10152.00
2018-07-16T08:56:40.010Z,10172.00
2018-07-16T08:57:39.953Z,10508.00
2018-07-16T08:58:39.887Z,10768.00
2018-07-16T08:59:39.828Z,11080.00
2018-07-16T09:00:39.765Z,11320.00
2018-07-16T09:01:39.685Z,11588.00
2018-07-16T09:02:39.621Z,11752.00
2018-07-16T09:03:39.566Z,11884.00
2018-07-16T09:04:39.502Z,12024.00
2018-07-16T09:05:39.441Z,12200.00
2018-07-16T09:06:39.383Z,12372.00
2018-07-16T09:07:39.299Z,12636.00
2018-07-16T09:08:39.239Z,12780.00
2018-07-16T09:09:39.179Z,13088.00
2018-07-16T09:10:39.118Z,13220.00
2018-07-16T09:11:39.050Z,13520.00
2018-07-16T09:12:38.988Z,13752.00
2018-07-16T09:13:39.028Z,13992.00
2018-07-16T09:14:38.848Z,14188.00
2018-07-16T09:15:38.790Z,14384.00
2018-07-16T09:16:38.728Z,14736.00
2018-07-16T09:17:38.663Z,15064.00
2018-07-16T09:18:38.600Z,15340.00
2018-07-16T09:19:38.543Z,15752.00
2018-07-16T09:20:38.480Z,15932.00
2018-07-16T09:21:38.403Z,16208.00
2018-07-16T09:22:38.341Z,16864.00
2018-07-16T09:23:38.273Z,17248.00
2018-07-16T09:24:38.212Z,17184.00
2018-07-16T09:25:38.201Z,17184.00
2018-07-16T09:26:38.110Z,17312.00
2018-07-16T09:27:38.028Z,17472.00
2018-07-16T09:28:37.966Z,18688.00
2018-07-16T09:29:37.899Z,20864.00
2018-07-16T09:30:37.824Z,22624.00
2018-07-16T09:31:37.769Z,23904.00
2018-07-16T09:32:37.773Z,24032.00
2018-07-16T09:33:37.652Z,24032.00
2018-07-16T09:34:37.631Z,23584.00
2018-07-16T09:35:37.519Z,23232.00
2018-07-16T09:36:37.456Z,23776.00
2018-07-16T09:37:37.393Z,24768.00
2018-07-16T09:38:37.325Z,25728.00
2018-07-16T09:39:37.251Z,28480.00
2018-07-16T09:40:37.189Z,30432.00
2018-07-16T09:41:37.131Z,27232.00
2018-07-16T09:42:37.068Z,22624.00
2018-07-16T09:43:37.003Z,23200.00
2018-07-16T09:44:36.939Z,22912.00
2018-07-16T09:45:36.879Z,22720.00
2018-07-16T09:46:36.817Z,17472.00
2018-07-16T09:47:36.758Z,14444.00
2018-07-16T09:48:36.762Z,9084.00
2018-07-16T09:49:36.615Z,6616.00
2018-07-16T09:50:36.551Z,6304.00
2018-07-16T09:51:36.494Z,6344.00
2018-07-16T09:52:36.431Z,14072.00
2018-07-16T09:53:36.371Z,10976.00
2018-07-16T09:54:36.307Z,6780.00
2018-07-16T09:55:36.242Z,6916.00
2018-07-16T09:56:36.169Z,6864.00
2018-07-16T09:57:36.109Z,8040.00
2018-07-16T09:58:36.047Z,8424.00
2018-07-16T09:59:35.979Z,8780.00
2018-07-16T10:00:35.917Z,6664.00
2018-07-16T10:01:35.841Z,6684.00
2018-07-16T10:02:35.780Z,7996.00
2018-07-16T10:03:35.720Z,11028.00
2018-07-16T10:04:35.657Z,11436.00
2018-07-16T10:05:35.580Z,18944.00
2018-07-16T10:06:35.518Z,21312.00
2018-07-16T10:07:35.459Z,12316.00
2018-07-16T10:08:35.397Z,9692.00
2018-07-16T10:09:35.331Z,6672.00
2018-07-16T10:10:35.258Z,6756.00
2018-07-16T10:11:35.192Z,7304.00
2018-07-16T10:12:35.123Z,9264.00
2018-07-16T10:13:35.063Z,16640.00
2018-07-16T10:14:34.995Z,8772.00
2018-07-16T10:15:34.929Z,7508.00
2018-07-16T10:16:34.854Z,5528.00
2018-07-16T10:17:34.795Z,5484.00
2018-07-16T10:18:34.732Z,5612.00
2018-07-16T10:19:34.661Z,5856.00
2018-07-16T10:20:34.629Z,6352.00
2018-07-16T10:21:34.531Z,7056.00
2018-07-16T10:22:34.455Z,7292.00
2018-07-16T10:23:34.398Z,7152.00
2018-07-16T10:24:34.334Z,6968.00
2018-07-16T10:25:34.262Z,7336.00
2018-07-16T10:26:34.200Z,8104.00
2018-07-16T10:27:34.124Z,8572.00
2018-07-16T10:28:34.071Z,8640.00
2018-07-16T10:29:34.002Z,8476.00
2018-07-16T10:30:33.924Z,7848.00
2018-07-16T10:31:33.856Z,7656.00
2018-07-16T10:32:33.782Z,7456.00
2018-07-16T10:33:33.721Z,7376.00
2018-07-16T10:34:33.660Z,7264.00
2018-07-16T10:35:33.589Z,6748.00
2018-07-16T10:36:33.528Z,6872.00
2018-07-16T10:37:33.445Z,6648.00
2018-07-16T10:38:33.382Z,6440.00
2018-07-16T10:39:33.312Z,6376.00
2018-07-16T10:40:33.250Z,6208.00
2018-07-16T10:41:33.179Z,6088.00
2018-07-16T10:42:33.114Z,6040.00
2018-07-16T10:43:33.035Z,6424.00
2018-07-16T10:44:32.973Z,6720.00
2018-07-16T10:45:32.903Z,6536.00
2018-07-16T10:46:32.839Z,6392.00
2018-07-16T10:47:32.763Z,6416.00
2018-07-16T10:48:32.698Z,6568.00
2018-07-16T10:49:32.647Z,6592.00
2018-07-16T10:50:32.559Z,6872.00
2018-07-16T10:51:32.488Z,8432.00
2018-07-16T10:52:32.426Z,16460.00
2018-07-16T10:53:32.349Z,23648.00
2018-07-16T10:54:32.286Z,29024.00
2018-07-16T10:55:32.216Z,30368.00
2018-07-16T10:56:32.155Z,30624.00
2018-07-16T10:57:32.089Z,31136.00
2018-07-16T10:58:32.026Z,31296.00
2018-07-16T10:59:31.947Z,31552.00
2018-07-16T11:00:31.873Z,31200.00
2018-07-16T11:01:31.827Z,30880.00
2018-07-16T11:02:31.753Z,30720.00
2018-07-16T11:03:31.684Z,31264.00
2018-07-16T11:04:31.623Z,31456.00
2018-07-16T11:05:31.622Z,29536.00
2018-07-16T11:06:31.487Z,25792.00
2018-07-16T11:07:31.430Z,30048.00
2018-07-16T11:08:31.354Z,29984.00
2018-07-16T11:09:31.285Z,30208.00
2018-07-16T11:10:31.224Z,32224.00
2018-07-16T11:11:31.164Z,32992.00
2018-07-16T11:12:31.102Z,32800.00
2018-07-16T11:13:31.030Z,34688.00
2018-07-16T11:14:30.968Z,36000.00
2018-07-16T11:15:30.901Z,35680.00
2018-07-16T11:16:30.838Z,36640.00
2018-07-16T11:17:30.782Z,37408.00
2018-07-16T11:18:30.719Z,38496.00
2018-07-16T11:19:30.651Z,39584.00
2018-07-16T11:20:30.589Z,39904.00
2018-07-16T11:21:30.525Z,38880.00
2018-07-16T11:22:30.462Z,39712.00
2018-07-16T11:23:30.404Z,38752.00
2018-07-16T11:24:30.340Z,37024.00
2018-07-16T11:25:30.277Z,37696.00
2018-07-16T11:26:30.213Z,38752.00
2018-07-16T11:27:30.156Z,39200.00
2018-07-16T11:28:30.094Z,39456.00
2018-07-16T11:29:30.031Z,39872.00
2018-07-16T11:30:29.980Z,39776.00
2018-07-16T11:31:29.906Z,40544.00
2018-07-16T11:32:29.837Z,41568.00
2018-07-16T11:33:29.783Z,42496.00
2018-07-16T11:34:29.721Z,42880.00
2018-07-16T11:35:29.712Z,43488.00
2018-07-16T11:36:29.590Z,44512.00
2018-07-16T11:37:29.528Z,46144.00
2018-07-16T11:38:29.464Z,47968.00
2018-07-16T11:39:29.405Z,48896.00
2018-07-16T11:40:29.343Z,49600.00
2018-07-16T11:41:29.278Z,49984.00
2018-07-16T11:42:29.216Z,51136.00
2018-07-16T11:43:29.157Z,52288.00
2018-07-16T11:44:29.108Z,52768.00
2018-07-16T11:45:29.032Z,52480.00
2018-07-16T11:46:28.981Z,52576.00
2018-07-16T11:47:28.913Z,10512.00
2018-07-16T11:48:28.852Z,20352.00
2018-07-16T11:49:28.806Z,10496.00
2018-07-16T11:50:28.732Z,9608.00
2018-07-16T11:51:28.665Z,10384.00
2018-07-16T11:52:28.610Z,11000.00
2018-07-16T11:53:28.541Z,23552.00
2018-07-16T11:54:28.480Z,17800.00
2018-07-16T11:55:28.421Z,32960.00
2018-07-16T11:56:28.360Z,42272.00
2018-07-16T11:57:28.291Z,51552.00
2018-07-16T11:58:28.217Z,35104.00
2018-07-16T11:59:28.228Z,41216.00
2018-07-16T12:00:28.104Z,57152.00
2018-07-16T12:01:28.036Z,57920.00
2018-07-16T12:02:27.972Z,58560.00
2018-07-16T12:03:27.962Z,59392.00
2018-07-16T12:04:27.843Z,60192.00
2018-07-16T12:05:27.786Z,59968.00
2018-07-16T12:06:27.722Z,61024.00
2018-07-16T12:07:27.645Z,63008.00
2018-07-16T12:08:27.599Z,63744.00
2018-07-16T12:09:27.517Z,63904.00
2018-07-16T12:10:27.454Z,64448.00
2018-07-16T12:11:27.396Z,64608.00
2018-07-16T12:12:27.485Z,65248.00
2018-07-16T12:13:27.283Z,63936.00
2018-07-16T12:14:27.207Z,62784.00
2018-07-16T12:15:27.148Z,62208.00
2018-07-16T12:16:27.087Z,62976.00
2018-07-16T12:17:27.021Z,63040.00